createdAt,value
2018-12-01T00:00:36.956Z,0.60
2018-12-01T00:03:06.233Z,0.60
2018-12-01T00:05:35.754Z,0.60
2018-12-01T00:08:04.746Z,0.60
2018-12-01T00:10:33.943Z,0.60
2018-12-01T00:13:03.032Z,0.60
2018-12-01T00:15:33.024Z,0.60
2018-12-01T00:18:02.303Z,0.60
2018-12-01T00:20:33.949Z,0.60
2018-12-01T00:23:03.615Z,0.60
2018-12-01T00:25:32.724Z,0.60
2018-12-01T00:28:02.023Z,0.60
2018-12-01T00:30:32.001Z,0.60
2018-12-01T00:33:01.469Z,0.60
2018-12-01T00:35:30.633Z,0.60
2018-12-01T00:37:59.918Z,0.60
2018-12-01T00:40:31.720Z,0.60
2018-12-01T00:43:00.792Z,0.60
2018-12-01T00:45:30.052Z,0.60
2018-12-01T00:47:59.334Z,0.60
2018-12-01T00:50:32.704Z,0.60
2018-12-01T00:53:02.254Z,0.60
2018-12-01T00:55:31.598Z,0.60
2018-12-01T00:58:01.107Z,0.60
2018-12-01T01:00:30.565Z,0.60
2018-12-01T01:03:01.079Z,0.60
2018-12-01T01:05:31.995Z,0.60
2018-12-01T01:08:02.106Z,0.70
2018-12-01T01:10:35.111Z,0.60
2018-12-01T01:13:10.424Z,0.60
2018-12-01T01:15:42.451Z,0.70
2018-12-01T01:18:14.069Z,0.70
2018-12-01T01:20:45.007Z,0.70
2018-12-01T01:23:17.008Z,0.70
2018-12-01T01:25:48.104Z,0.70
2018-12-01T01:28:19.781Z,0.70
2018-12-01T01:30:53.041Z,0.70
2018-12-01T01:33:31.129Z,0.70
2018-12-01T01:36:10.570Z,0.70
2018-12-01T01:38:42.046Z,0.70
2018-12-01T01:41:12.750Z,0.70
2018-12-01T01:43:44.209Z,0.70
2018-12-01T01:46:15.426Z,0.70
2018-12-01T01:48:47.384Z,0.70
2018-12-01T01:51:20.134Z,0.70
2018-12-01T01:53:52.476Z,0.70
2018-12-01T01:56:24.056Z,0.70
2018-12-01T01:58:56.777Z,0.70
2018-12-01T02:01:27.779Z,0.70
2018-12-01T02:03:58.570Z,0.70
2018-12-01T02:06:28.392Z,0.70
2018-12-01T02:08:59.654Z,0.70
2018-12-01T02:11:29.865Z,0.70
2018-12-01T02:13:59.659Z,0.70
2018-12-01T02:16:29.287Z,0.70
2018-12-01T02:19:00.535Z,0.70
2018-12-01T02:21:29.475Z,0.70
2018-12-01T02:23:58.748Z,0.70
2018-12-01T02:26:31.757Z,0.70
2018-12-01T02:29:02.175Z,0.70
2018-12-01T02:31:31.721Z,0.70
2018-12-01T02:34:01.191Z,0.70
2018-12-01T02:36:30.888Z,0.70
2018-12-01T02:39:00.656Z,0.70
2018-12-01T02:41:30.110Z,0.70
2018-12-01T02:44:12.304Z,0.70
2018-12-01T02:46:52.358Z,0.70
2018-12-01T02:49:21.945Z,0.70
2018-12-01T02:51:50.967Z,0.70
2018-12-01T02:54:20.226Z,0.70
2018-12-01T02:56:49.299Z,0.70
2018-12-01T02:59:18.548Z,0.70
2018-12-01T03:01:47.902Z,0.70
2018-12-01T03:04:17.289Z,0.70
2018-12-01T03:06:46.383Z,0.70
2018-12-01T03:09:15.719Z,0.70
2018-12-01T03:11:44.911Z,0.70
2018-12-01T03:14:14.112Z,0.70
2018-12-01T03:16:43.250Z,0.70
2018-12-01T03:19:12.652Z,0.70
2018-12-01T03:21:43.248Z,0.70
2018-12-01T03:24:12.585Z,0.70
2018-12-01T03:26:41.843Z,0.70
2018-12-01T03:29:11.481Z,0.70
2018-12-01T03:31:40.423Z,0.70
2018-12-01T03:34:09.412Z,0.70
2018-12-01T03:36:38.688Z,0.70
2018-12-01T03:39:09.731Z,0.70
2018-12-01T03:41:40.455Z,0.70
2018-12-01T03:44:09.473Z,0.70
2018-12-01T03:46:38.347Z,0.70
2018-12-01T03:49:17.298Z,0.60
2018-12-01T03:51:46.274Z,0.60
2018-12-01T03:54:15.097Z,0.70
2018-12-01T03:56:51.628Z,0.70
2018-12-01T03:59:20.874Z,0.70
2018-12-01T04:01:50.188Z,0.70
2018-12-01T04:04:19.361Z,0.70
2018-12-01T04:06:48.678Z,0.70
2018-12-01T04:09:21.857Z,0.70
2018-12-01T04:11:50.856Z,0.70
2018-12-01T04:14:19.544Z,0.70
2018-12-01T04:16:48.477Z,0.70
2018-12-01T04:19:17.317Z,0.70
2018-12-01T04:21:46.049Z,0.70
2018-12-01T04:24:14.749Z,0.70
2018-12-01T04:26:45.722Z,0.70
2018-12-01T04:29:16.680Z,0.70
2018-12-01T04:31:50.155Z,0.70
2018-12-01T04:34:22.206Z,0.70
2018-12-01T04:36:51.621Z,0.70
2018-12-01T04:39:20.807Z,0.70
2018-12-01T04:41:50.357Z,0.70
2018-12-01T04:44:19.793Z,0.70
2018-12-01T04:46:49.295Z,0.70
2018-12-01T04:49:19.152Z,0.70
2018-12-01T05:00:14.207Z,0.70
2018-12-01T05:02:43.655Z,0.70
2018-12-01T05:05:18.059Z,0.70
2018-12-01T05:07:48.124Z,0.70
2018-12-01T05:10:18.874Z,0.70
2018-12-01T05:12:47.755Z,0.80
2018-12-01T05:15:18.010Z,0.80
2018-12-01T05:17:47.475Z,0.90
2018-12-01T05:20:23.299Z,1.00
2018-12-01T05:22:57.312Z,1.10
2018-12-01T05:25:26.450Z,1.20
2018-12-01T05:27:59.409Z,1.30
2018-12-01T05:30:28.516Z,1.40
2018-12-01T05:32:57.932Z,1.60
2018-12-01T05:35:27.264Z,1.70
2018-12-01T05:37:56.693Z,1.70
2018-12-01T05:40:26.882Z,1.80
2018-12-01T05:42:56.394Z,1.80
2018-12-01T05:45:25.429Z,1.90
2018-12-01T05:47:54.792Z,2.00
2018-12-01T05:50:24.862Z,2.00
2018-12-01T05:52:58.343Z,2.10
2018-12-01T05:55:27.869Z,2.10
2018-12-01T05:57:56.934Z,2.20
2018-12-01T06:00:27.304Z,2.20
2018-12-01T06:02:57.055Z,2.20
2018-12-01T06:05:27.282Z,2.20
2018-12-01T06:07:57.000Z,2.20
2018-12-01T06:10:26.219Z,2.10
2018-12-01T06:12:59.181Z,2.10
2018-12-01T06:15:28.309Z,2.10
2018-12-01T06:17:57.860Z,2.10
2018-12-01T06:20:27.035Z,2.20
2018-12-01T06:22:56.254Z,2.20
2018-12-01T06:25:25.652Z,2.30
2018-12-01T06:27:55.347Z,2.30
2018-12-01T06:30:24.697Z,2.20
2018-12-01T06:32:53.834Z,2.20
2018-12-01T06:35:30.564Z,2.10
2018-12-01T06:37:59.587Z,2.00
2018-12-01T06:40:29.010Z,1.90
2018-12-01T06:43:14.609Z,1.80
2018-12-01T06:45:43.692Z,1.70
2018-12-01T06:48:13.165Z,1.60
2018-12-01T06:50:42.688Z,1.50
2018-12-01T06:53:12.712Z,1.40
2018-12-01T06:55:44.161Z,1.30
2018-12-01T06:58:15.890Z,1.20
2018-12-01T07:00:44.973Z,1.20
2018-12-01T07:03:14.670Z,1.10
2018-12-01T07:05:45.526Z,1.10
2018-12-01T07:08:19.862Z,1.00
2018-12-01T07:10:49.142Z,1.00
2018-12-01T07:13:18.752Z,0.90
2018-12-01T07:15:48.615Z,0.90
2018-12-01T07:18:32.919Z,0.80
2018-12-01T07:21:02.170Z,0.80
2018-12-01T07:23:31.333Z,0.80
2018-12-01T07:26:00.643Z,0.80
2018-12-01T07:28:31.530Z,0.80
2018-12-01T07:31:00.435Z,0.80
2018-12-01T07:33:30.068Z,0.70
2018-12-01T07:35:59.321Z,0.70
2018-12-01T07:38:32.942Z,0.80
2018-12-01T07:41:01.946Z,0.80
2018-12-01T07:43:31.003Z,0.80
2018-12-01T07:46:13.655Z,0.90
2018-12-01T07:48:43.209Z,0.90
2018-12-01T07:51:12.470Z,1.00
2018-12-01T07:53:41.441Z,1.00
2018-12-01T07:56:10.705Z,1.00
2018-12-01T07:58:40.149Z,1.10
2018-12-01T08:01:09.650Z,1.10
2018-12-01T08:03:39.088Z,1.10
2018-12-01T08:06:08.312Z,1.10
2018-12-01T08:08:37.848Z,1.20
2018-12-01T08:11:20.139Z,1.20
2018-12-01T08:13:49.401Z,1.30
2018-12-01T08:16:19.033Z,1.30
2018-12-01T08:18:49.272Z,1.30
2018-12-01T08:21:18.883Z,1.40
2018-12-01T08:23:48.753Z,1.40
2018-12-01T08:26:18.214Z,1.40
2018-12-01T08:28:47.757Z,1.40
2018-12-01T08:31:17.785Z,1.40
2018-12-01T08:33:47.414Z,1.40
2018-12-01T08:36:22.897Z,1.40
2018-12-01T08:38:52.339Z,1.50
2018-12-01T08:41:23.105Z,1.50
2018-12-01T08:43:53.817Z,1.50
2018-12-01T08:46:29.443Z,1.60
2018-12-01T08:48:58.600Z,1.60
2018-12-01T08:51:27.712Z,1.60
2018-12-01T08:53:57.110Z,1.60
2018-12-01T08:56:26.830Z,1.70
2018-12-01T08:58:56.255Z,1.70
2018-12-01T09:01:25.424Z,1.60
2018-12-01T09:03:54.587Z,1.70
2018-12-01T09:06:24.125Z,1.60
2018-12-01T09:08:53.877Z,1.70
2018-12-01T09:11:23.036Z,1.70
2018-12-01T09:14:11.090Z,1.70
2018-12-01T09:16:40.767Z,1.80
2018-12-01T09:19:10.219Z,1.80
2018-12-01T09:21:39.510Z,1.90
2018-12-01T09:24:08.849Z,1.90
2018-12-01T09:26:38.098Z,2.00
2018-12-01T09:29:07.518Z,2.10
2018-12-01T09:31:49.480Z,2.10
2018-12-01T09:34:18.803Z,2.10
2018-12-01T09:36:48.166Z,2.00
2018-12-01T09:39:21.025Z,2.10
2018-12-01T09:41:50.210Z,2.10
2018-12-01T09:44:19.343Z,2.10
2018-12-01T09:46:49.353Z,2.20
2018-12-01T09:49:17.884Z,2.20
2018-12-01T09:51:46.453Z,2.30
2018-12-01T09:54:16.053Z,2.40
2018-12-01T09:56:44.519Z,2.60
2018-12-01T09:59:13.017Z,2.80
2018-12-01T10:01:49.204Z,3.00
2018-12-01T10:04:17.943Z,3.10
2018-12-01T10:06:47.381Z,3.20
2018-12-01T10:09:18.104Z,3.30
2018-12-01T10:11:50.919Z,3.40
2018-12-01T10:14:19.410Z,3.50
2018-12-01T10:16:48.135Z,3.60
2018-12-01T10:19:17.906Z,3.70
2018-12-01T10:21:49.083Z,3.70
2018-12-01T10:24:18.114Z,3.80
2018-12-01T10:26:47.723Z,3.80
2018-12-01T10:29:18.037Z,3.90
2018-12-01T10:31:47.161Z,4.00
2018-12-01T10:34:16.915Z,4.10
2018-12-01T10:36:47.496Z,4.20
2018-12-01T10:39:17.103Z,4.20
2018-12-01T10:41:46.270Z,4.30
2018-12-01T10:44:34.528Z,4.40
2018-12-01T10:47:03.101Z,4.60
2018-12-01T10:49:31.611Z,4.70
2018-12-01T10:52:05.893Z,4.80
2018-12-01T10:54:34.384Z,4.90
2018-12-01T10:57:03.020Z,4.90
2018-12-01T10:59:31.577Z,5.00
2018-12-01T11:02:05.580Z,5.00
2018-12-01T11:04:38.386Z,5.00
2018-12-01T11:07:07.240Z,5.00
2018-12-01T11:09:38.903Z,5.00
2018-12-01T11:12:07.410Z,5.00
2018-12-01T11:14:35.915Z,5.00
2018-12-01T11:17:04.492Z,5.00
2018-12-01T11:19:34.484Z,4.90
2018-12-01T11:22:05.231Z,4.90
2018-12-01T11:24:34.519Z,4.90
2018-12-01T11:27:03.988Z,4.90
2018-12-01T11:29:33.648Z,4.90
2018-12-01T11:32:03.091Z,4.90
2018-12-01T11:34:32.877Z,5.00
2018-12-01T11:37:02.025Z,5.00
2018-12-01T11:39:31.108Z,5.10
2018-12-01T11:41:59.993Z,5.10
2018-12-01T11:44:30.067Z,5.20
2018-12-01T11:47:00.263Z,5.10
2018-12-01T11:49:29.928Z,5.10
2018-12-01T11:51:58.635Z,5.10
2018-12-01T11:54:27.317Z,5.10
2018-12-01T11:56:56.768Z,5.10
2018-12-01T11:59:25.388Z,5.10
2018-12-01T12:01:54.278Z,5.10
2018-12-01T12:04:22.883Z,5.10
2018-12-01T12:06:51.547Z,5.20
2018-12-01T12:09:20.093Z,5.20
2018-12-01T12:11:48.773Z,5.20
2018-12-01T12:14:17.446Z,5.20
2018-12-01T12:16:46.020Z,5.20
2018-12-01T12:19:14.641Z,5.30
2018-12-01T12:21:43.848Z,5.30
2018-12-01T12:24:12.704Z,5.30
2018-12-01T12:26:41.255Z,5.30
2018-12-01T12:29:09.854Z,5.30
2018-12-01T12:31:44.539Z,5.20
2018-12-01T12:34:13.044Z,5.30
2018-12-01T12:36:41.595Z,5.20
2018-12-01T12:39:10.115Z,5.20
2018-12-01T12:41:45.041Z,5.20
2018-12-01T12:44:13.601Z,5.10
2018-12-01T12:46:42.357Z,5.10
2018-12-01T12:49:10.912Z,5.10
2018-12-01T12:51:39.454Z,5.00
2018-12-01T12:54:08.166Z,5.00
2018-12-01T12:56:36.931Z,5.00
2018-12-01T12:59:05.847Z,4.90
2018-12-01T13:01:34.469Z,4.90
2018-12-01T13:04:02.915Z,4.90
2018-12-01T13:06:31.849Z,4.90
2018-12-01T13:09:00.512Z,4.90
2018-12-01T13:11:29.242Z,4.90
2018-12-01T13:13:57.827Z,4.90
2018-12-01T13:16:26.452Z,4.90
2018-12-01T13:18:55.202Z,4.90
2018-12-01T13:21:24.059Z,4.90
2018-12-01T13:23:52.707Z,4.90
2018-12-01T13:26:22.030Z,4.90
2018-12-01T13:28:51.138Z,4.80
2018-12-01T13:31:19.840Z,4.80
2018-12-01T13:33:48.452Z,4.80
2018-12-01T13:36:16.956Z,4.80
2018-12-01T13:38:45.525Z,4.70
2018-12-01T13:41:14.213Z,4.70
2018-12-01T13:43:43.195Z,4.70
2018-12-01T13:46:12.257Z,4.70
2018-12-01T13:48:41.138Z,4.80
2018-12-01T13:51:10.046Z,4.80
2018-12-01T13:53:38.697Z,4.80
2018-12-01T13:56:07.408Z,4.80
2018-12-01T13:58:36.051Z,4.80
2018-12-01T14:01:05.173Z,4.80
2018-12-01T14:03:33.683Z,4.70
2018-12-01T14:06:03.352Z,4.70
2018-12-01T14:08:32.460Z,4.50
2018-12-01T14:11:01.305Z,4.50
2018-12-01T14:13:30.259Z,4.40
2018-12-01T14:15:59.481Z,4.30
2018-12-01T14:18:28.481Z,4.30
2018-12-01T14:20:57.532Z,4.20
2018-12-01T14:23:26.612Z,4.10
2018-12-01T14:25:55.425Z,4.10
2018-12-01T14:28:24.674Z,4.10
2018-12-01T14:30:54.217Z,4.10
2018-12-01T14:33:23.149Z,4.10
2018-12-01T14:35:52.669Z,4.10
2018-12-01T14:38:22.198Z,4.00
2018-12-01T14:40:51.459Z,4.00
2018-12-01T14:43:20.786Z,4.00
2018-12-01T14:45:51.102Z,4.00
2018-12-01T14:48:19.820Z,3.90
2018-12-01T14:50:49.178Z,3.80
2018-12-01T14:53:19.106Z,3.80
2018-12-01T14:55:48.229Z,3.70
2018-12-01T14:58:27.043Z,3.60
2018-12-01T15:00:56.335Z,3.50
2018-12-01T15:03:25.971Z,3.50
2018-12-01T15:05:54.388Z,3.40
2018-12-01T15:08:23.642Z,3.30
2018-12-01T15:10:52.573Z,3.20
2018-12-01T15:13:21.478Z,3.20
2018-12-01T15:15:50.651Z,3.10
2018-12-01T15:18:19.799Z,3.00
2018-12-01T15:20:49.169Z,3.00
2018-12-01T15:23:18.928Z,2.90
2018-12-01T15:25:48.974Z,2.80
2018-12-01T15:28:18.138Z,2.70
2018-12-01T15:30:48.356Z,2.60
2018-12-01T15:33:17.033Z,2.60
2018-12-01T15:35:46.559Z,2.60
2018-12-01T15:38:15.541Z,2.50
2018-12-01T15:40:50.737Z,2.50
2018-12-01T15:43:19.415Z,2.50
2018-12-01T15:45:48.403Z,2.50
2018-12-01T15:48:17.051Z,2.50
2018-12-01T15:50:45.722Z,2.50
2018-12-01T15:53:15.298Z,2.40
2018-12-01T15:55:44.006Z,2.40
2018-12-01T15:58:12.728Z,2.40
2018-12-01T16:00:42.871Z,2.30
2018-12-01T16:03:11.619Z,2.30
2018-12-01T16:05:40.153Z,2.30
2018-12-01T16:08:09.856Z,2.10
2018-12-01T16:10:38.690Z,1.90
2018-12-01T16:13:12.781Z,1.80
2018-12-01T16:15:43.379Z,1.70
2018-12-01T16:18:12.086Z,1.60
2018-12-01T16:20:40.633Z,1.50
2018-12-01T16:23:09.271Z,1.40
2018-12-01T16:25:38.018Z,1.30
2018-12-01T16:28:08.092Z,1.20
2018-12-01T16:30:40.010Z,1.10
2018-12-01T16:33:10.456Z,1.10
2018-12-01T16:35:39.540Z,1.00
2018-12-01T16:38:09.745Z,1.00
2018-12-01T16:40:43.726Z,1.00
2018-12-01T16:43:13.446Z,1.00
2018-12-01T16:45:42.914Z,1.00
2018-12-01T16:48:11.752Z,1.00
2018-12-01T16:50:40.342Z,0.90
2018-12-01T16:53:10.885Z,0.80
2018-12-01T16:55:40.089Z,0.70
2018-12-01T16:58:08.592Z,0.70
2018-12-01T17:00:37.073Z,0.60
2018-12-01T17:03:06.597Z,0.60
2018-12-01T17:05:37.271Z,0.50
2018-12-01T17:08:06.496Z,0.40
2018-12-01T17:10:35.187Z,0.40
2018-12-01T17:13:04.013Z,0.30
2018-12-01T17:15:32.563Z,0.30
2018-12-01T17:18:01.094Z,0.20
2018-12-01T17:20:29.638Z,0.20
2018-12-01T17:22:58.779Z,0.20
2018-12-01T17:25:27.554Z,0.20
2018-12-01T17:27:57.691Z,0.20
2018-12-01T17:30:30.441Z,0.30
2018-12-01T17:33:00.017Z,0.30
2018-12-01T17:35:31.195Z,0.20
2018-12-01T17:38:02.167Z,0.10
2018-12-01T17:41:11.781Z,0.10
2018-12-01T17:43:56.874Z,0.10
2018-12-01T17:46:25.426Z,0.10
2018-12-01T17:48:54.004Z,0.10
2018-12-01T17:51:22.937Z,0.10
2018-12-01T17:53:55.492Z,0.10
2018-12-01T17:56:24.472Z,0.10
2018-12-01T17:58:53.033Z,0.00
2018-12-01T18:01:21.571Z,0.00
2018-12-01T18:03:50.373Z,-0.10
2018-12-01T18:06:19.513Z,0.00
2018-12-01T18:08:48.739Z,0.10
2018-12-01T18:11:18.146Z,0.20
2018-12-01T18:13:47.643Z,0.30
2018-12-01T18:16:16.893Z,0.40
2018-12-01T18:18:46.458Z,0.50
2018-12-01T18:21:15.969Z,0.50
2018-12-01T18:23:45.783Z,0.60
2018-12-01T18:26:15.054Z,0.60
2018-12-01T18:28:47.840Z,0.60
2018-12-01T18:31:22.145Z,0.70
2018-12-01T18:33:55.469Z,0.80
2018-12-01T18:36:24.808Z,0.80
2018-12-01T18:38:54.546Z,0.90
2018-12-01T18:41:24.339Z,1.00
2018-12-01T18:43:54.241Z,1.00
2018-12-01T18:46:23.859Z,1.10
2018-12-01T18:48:53.130Z,1.10
2018-12-01T18:51:22.242Z,1.20
2018-12-01T18:53:51.705Z,1.20
2018-12-01T18:56:20.716Z,1.30
2018-12-01T18:58:50.297Z,1.40
2018-12-01T19:01:19.503Z,1.50
2018-12-01T19:09:28.064Z,1.70
2018-12-01T19:11:57.800Z,1.80
2018-12-01T19:14:27.090Z,1.80
2018-12-01T19:16:56.505Z,1.80
2018-12-01T19:19:26.347Z,1.90
2018-12-01T19:21:56.043Z,1.90
2018-12-01T19:24:25.350Z,2.00
2018-12-01T19:26:56.181Z,2.10
2018-12-01T19:29:25.746Z,2.10
2018-12-01T19:31:54.842Z,2.10
2018-12-01T19:34:24.550Z,2.10
2018-12-01T19:36:54.055Z,2.10
2018-12-01T19:39:23.357Z,2.10
2018-12-01T19:41:52.644Z,2.20
2018-12-01T19:44:21.932Z,2.20
2018-12-01T19:46:51.021Z,2.20
2018-12-01T19:49:20.390Z,2.20
2018-12-01T19:51:49.556Z,2.20
2018-12-01T19:54:19.039Z,2.20
2018-12-01T19:56:48.466Z,2.20
2018-12-01T19:59:18.383Z,2.20
2018-12-01T20:01:47.779Z,2.10
2018-12-01T20:04:17.402Z,2.10
2018-12-01T20:06:46.938Z,2.10
2018-12-01T20:09:17.122Z,2.10
2018-12-01T20:11:46.474Z,2.00
2018-12-01T20:14:17.300Z,2.00
2018-12-01T20:16:49.804Z,2.00
2018-12-01T20:19:19.805Z,2.00
2018-12-01T20:21:49.604Z,2.10
2018-12-01T20:24:19.215Z,2.10
2018-12-01T20:26:48.540Z,2.10
2018-12-01T20:29:18.367Z,2.20
2018-12-01T20:31:47.833Z,2.20
2018-12-01T20:34:16.962Z,2.20
2018-12-01T20:36:51.699Z,2.20
2018-12-01T20:39:27.662Z,2.20
2018-12-01T20:41:57.030Z,2.20
2018-12-01T20:44:26.454Z,2.20
2018-12-01T20:46:56.209Z,2.20
2018-12-01T20:49:25.564Z,2.20
2018-12-01T20:51:55.076Z,2.20
2018-12-01T20:54:38.120Z,2.20
2018-12-01T20:57:20.568Z,2.20
2018-12-01T20:59:50.342Z,2.20
2018-12-01T21:02:20.045Z,2.10
2018-12-01T21:04:49.567Z,2.20
2018-12-01T21:07:18.909Z,2.20
2018-12-01T21:09:48.289Z,2.20
2018-12-01T21:12:17.712Z,2.30
2018-12-01T21:14:47.543Z,2.30
2018-12-01T21:17:17.853Z,2.30
2018-12-01T21:19:47.643Z,2.40
2018-12-01T21:22:17.099Z,2.40
2018-12-01T21:24:46.140Z,2.50
2018-12-01T21:27:15.786Z,2.50
2018-12-01T21:29:46.160Z,2.50
2018-12-01T21:32:15.421Z,2.50
2018-12-01T21:34:44.930Z,2.50
2018-12-01T21:37:14.345Z,2.50
2018-12-01T21:39:44.664Z,2.60
2018-12-01T21:42:13.227Z,2.60
2018-12-01T21:44:41.823Z,2.60
2018-12-01T21:47:10.352Z,2.60
2018-12-01T21:49:38.999Z,2.60
2018-12-01T21:52:07.727Z,2.60
2018-12-01T21:54:36.259Z,2.60
2018-12-01T21:57:04.871Z,2.60
2018-12-01T21:59:33.365Z,2.60
2018-12-01T22:02:02.222Z,2.60
2018-12-01T22:04:30.702Z,2.60
2018-12-01T22:06:59.229Z,2.60
2018-12-01T22:09:27.721Z,2.50
2018-12-01T22:11:56.281Z,2.50
2018-12-01T22:14:25.086Z,2.50
2018-12-01T22:16:53.590Z,2.40
2018-12-01T22:19:22.140Z,2.40
2018-12-01T22:21:50.641Z,2.30
2018-12-01T22:24:19.140Z,2.30
2018-12-01T22:26:47.609Z,2.20
2018-12-01T22:29:16.077Z,2.10
2018-12-01T22:31:44.597Z,2.00
2018-12-01T22:34:13.625Z,2.00
2018-12-01T22:36:42.740Z,1.90
2018-12-01T22:39:11.878Z,1.90
2018-12-01T22:41:40.876Z,1.90
2018-12-01T22:44:09.436Z,1.90
2018-12-01T22:46:38.022Z,1.90
2018-12-01T22:49:06.607Z,1.90
2018-12-01T22:51:35.152Z,1.90
2018-12-01T22:54:03.929Z,1.90
2018-12-01T22:56:33.539Z,1.90
2018-12-01T22:59:02.916Z,1.80
2018-12-01T23:01:31.423Z,1.80
2018-12-01T23:04:00.065Z,1.80
2018-12-01T23:06:28.668Z,1.80
2018-12-01T23:08:57.195Z,1.70
2018-12-01T23:11:25.647Z,1.60
2018-12-01T23:13:54.679Z,1.60
2018-12-01T23:16:23.526Z,1.60
2018-12-01T23:18:52.780Z,1.60
2018-12-01T23:21:22.043Z,1.70
2018-12-01T23:23:51.169Z,1.80
2018-12-01T23:26:20.629Z,1.80
2018-12-01T23:28:49.194Z,1.80
2018-12-01T23:31:17.712Z,1.80
2018-12-01T23:33:46.244Z,1.90
2018-12-01T23:36:14.742Z,1.90
2018-12-01T23:38:43.381Z,1.90
2018-12-01T23:41:12.109Z,1.90
2018-12-01T23:43:40.781Z,1.90
2018-12-01T23:46:09.423Z,2.00
2018-12-01T23:48:38.010Z,2.10
2018-12-01T23:51:07.097Z,2.20
2018-12-01T23:53:35.645Z,2.20
2018-12-01T23:56:04.155Z,2.20
2018-12-01T23:58:32.638Z,2.10
